Main page
METAR-TAF:

METAR-TAF

Airports :

Hans Christian Andersen Airport

Odense, Denmark

latitude: 55-29N, longitude: 010-20E, elevation: 17 m

Current weather observation

The report was made 1 hour and 5 minutes ago, at 08:50 UTC
Wind 8 kt from the West/Northwest
Temperature 4°C
Humidity 93%
Pressure 1030 hPa
Visibility 10 km or more
no clouds below 1500 m and no cumulonimbus

METAR: EKOD 190850Z 29008KT CAVOK 04/03 Q1030

Time: 10:55 (09:55 UTC)

Forecast

The report was made 58 minutes ago, at 08:57 UTC
Forecast valid from 19 at 09 UTC to 19 at 14 UTC
Wind 10 kt from the Northwest
Visibility 10 km or more
Few clouds at a height of 2500 ft

TAF: EKOD 190857Z 1909/1914 31010KT 9999 FEW025

Weather observations and forecasts of more than 4000 airports (METAR and TAF reports).

The available stations are represented by yellow and red dots on the map.

Hover mouse over dot to see the name of the station.

Then click to see weather observations and forecasts.

To change the map : click on the green buttons with a black cross to zoom in, on the green button with a dash to zoom out, or on the green arrows for adjacent maps.


METAR-TAF: